createdAt,value
2018-10-05T00:00:19.846Z,59.63
2018-10-05T00:01:19.871Z,59.82
2018-10-05T00:02:19.641Z,59.72
2018-10-05T00:03:19.933Z,59.72
2018-10-05T00:04:19.690Z,59.82
2018-10-05T00:05:19.983Z,59.92
2018-10-05T00:06:19.732Z,59.82
2018-10-05T00:07:20.021Z,59.63
2018-10-05T00:08:19.787Z,59.72
2018-10-05T00:09:20.088Z,59.44
2018-10-05T00:10:20.091Z,59.72
2018-10-05T00:11:20.132Z,59.44
2018-10-05T00:12:20.171Z,59.34
2018-10-05T00:13:19.919Z,59.92
2018-10-05T00:14:20.208Z,59.34
2018-10-05T00:15:19.973Z,59.82
2018-10-05T00:16:19.987Z,59.63
2018-10-05T00:17:20.027Z,59.63
2018-10-05T00:18:20.047Z,59.82
2018-10-05T00:19:20.342Z,59.53
2018-10-05T00:20:20.119Z,59.63
2018-10-05T00:21:20.372Z,59.44
2018-10-05T00:22:20.408Z,59.53
2018-10-05T00:23:20.426Z,59.34
2018-10-05T00:24:20.463Z,59.34
2018-10-05T00:25:20.217Z,59.72
2018-10-05T00:26:20.495Z,59.44
2018-10-05T00:27:21.541Z,59.44
2018-10-05T00:28:20.559Z,59.34
2018-10-05T00:29:20.584Z,59.44
2018-10-05T00:30:20.608Z,59.53
2018-10-05T00:31:20.636Z,59.34
2018-10-05T00:32:20.762Z,59.34
2018-10-05T00:33:20.682Z,59.63
2018-10-05T00:34:20.702Z,59.34
2018-10-05T00:35:20.751Z,59.53
2018-10-05T00:36:20.756Z,59.53
2018-10-05T00:37:20.527Z,59.63
2018-10-05T00:38:20.554Z,59.34
2018-10-05T00:39:20.853Z,59.44
2018-10-05T00:40:20.860Z,59.63
2018-10-05T00:41:20.944Z,59.44
2018-10-05T00:42:20.919Z,59.53
2018-10-05T00:43:20.683Z,59.44
2018-10-05T00:44:20.702Z,59.63
2018-10-05T00:45:20.986Z,59.63
2018-10-05T00:46:21.011Z,59.24
2018-10-05T00:47:20.791Z,59.44
2018-10-05T00:48:21.084Z,59.53
2018-10-05T00:49:21.085Z,59.63
2018-10-05T00:50:20.859Z,59.44
2018-10-05T00:51:21.142Z,59.63
2018-10-05T00:52:20.913Z,59.63
2018-10-05T00:53:20.996Z,59.53
2018-10-05T00:54:21.222Z,59.63
2018-10-05T00:55:20.983Z,59.24
2018-10-05T00:56:21.291Z,59.63
2018-10-05T00:57:21.316Z,59.24
2018-10-05T00:58:21.337Z,59.53
2018-10-05T00:59:21.347Z,59.56
2018-10-05T01:00:21.122Z,59.24
2018-10-05T01:01:21.140Z,59.63
2018-10-05T01:02:21.175Z,59.63
2018-10-05T01:03:21.461Z,59.34
2018-10-05T01:04:21.480Z,59.44
2018-10-05T01:05:21.521Z,59.63
2018-10-05T01:06:21.524Z,59.44
2018-10-05T01:07:21.560Z,59.53
2018-10-05T01:08:21.571Z,59.44
2018-10-05T01:09:21.344Z,59.34
2018-10-05T01:10:21.634Z,59.44
2018-10-05T01:11:21.726Z,59.53
2018-10-05T01:12:21.893Z,59.44
2018-10-05T01:13:21.707Z,59.53
2018-10-05T01:14:21.475Z,59.63
2018-10-05T01:15:21.769Z,59.24
2018-10-05T01:16:21.534Z,59.24
2018-10-05T01:17:21.817Z,59.24
2018-10-05T01:18:21.834Z,59.44
2018-10-05T01:19:21.870Z,59.63
2018-10-05T01:20:21.624Z,59.44
2018-10-05T01:21:21.917Z,59.53
2018-10-05T01:22:21.689Z,59.24
2018-10-05T01:23:21.963Z,59.24
2018-10-05T01:24:21.983Z,59.24
2018-10-05T01:25:22.006Z,59.34
2018-10-05T01:26:22.039Z,59.34
2018-10-05T01:27:22.184Z,59.53
2018-10-05T01:28:21.832Z,59.63
2018-10-05T01:29:21.857Z,59.34
2018-10-05T01:30:22.141Z,59.53
2018-10-05T01:31:22.176Z,59.63
2018-10-05T01:32:22.189Z,59.24
2018-10-05T01:33:22.220Z,59.63
2018-10-05T01:34:22.242Z,59.24
2018-10-05T01:35:22.264Z,59.44
2018-10-05T01:36:22.294Z,59.24
2018-10-05T01:37:22.074Z,59.34
2018-10-05T01:38:22.090Z,59.44
2018-10-05T01:39:22.115Z,59.34
2018-10-05T01:40:22.135Z,59.24
2018-10-05T01:41:22.424Z,59.24
2018-10-05T01:42:22.468Z,59.63
2018-10-05T01:43:22.491Z,59.63
2018-10-05T01:44:22.514Z,59.53
2018-10-05T01:45:23.131Z,59.53
2018-10-05T01:46:22.303Z,59.44
2018-10-05T01:47:22.323Z,59.44
2018-10-05T01:48:22.627Z,59.53
2018-10-05T01:49:22.376Z,59.56
2018-10-05T01:50:22.395Z,59.44
2018-10-05T01:51:22.699Z,59.34
2018-10-05T01:52:22.449Z,59.24
2018-10-05T01:53:22.733Z,59.44
2018-10-05T01:54:22.751Z,59.63
2018-10-05T01:55:22.533Z,59.24
2018-10-05T01:56:22.559Z,59.44
2018-10-05T01:57:22.848Z,59.53
2018-10-05T01:58:22.856Z,59.44
2018-10-05T01:59:22.882Z,59.34
2018-10-05T02:00:22.912Z,59.53
2018-10-05T02:01:22.676Z,59.72
2018-10-05T02:02:22.971Z,59.44
2018-10-05T02:03:22.721Z,59.44
2018-10-05T02:04:23.021Z,59.24
2018-10-05T02:05:23.039Z,59.72
2018-10-05T02:06:23.063Z,59.44
2018-10-05T02:07:23.088Z,59.34
2018-10-05T02:08:22.853Z,59.63
2018-10-05T02:09:23.140Z,59.24
2018-10-05T02:10:22.912Z,59.53
2018-10-05T02:11:22.938Z,59.34
2018-10-05T02:12:23.218Z,59.72
2018-10-05T02:13:37.896Z,59.72
2018-10-05T02:14:23.273Z,59.72
2018-10-05T02:15:23.295Z,59.72
2018-10-05T02:16:23.066Z,59.92
2018-10-05T02:17:23.344Z,59.53
2018-10-05T02:18:23.378Z,59.44
2018-10-05T02:19:23.392Z,59.72
2018-10-05T02:20:23.435Z,59.47
2018-10-05T02:21:23.442Z,59.44
2018-10-05T02:22:23.476Z,59.63
2018-10-05T02:23:23.498Z,59.44
2018-10-05T02:24:23.271Z,59.34
2018-10-05T02:25:23.561Z,59.44
2018-10-05T02:26:23.574Z,59.34
2018-10-05T02:27:23.375Z,59.44
2018-10-05T02:29:23.393Z,59.44
2018-10-05T02:30:23.682Z,59.44
2018-10-05T02:31:23.720Z,59.44
2018-10-05T02:32:23.726Z,59.44
2018-10-05T02:33:23.756Z,59.44
2018-10-05T02:34:23.526Z,59.72
2018-10-05T02:35:23.809Z,59.53
2018-10-05T02:36:23.578Z,59.72
2018-10-05T02:38:23.893Z,59.53
2018-10-05T02:39:23.670Z,59.72
2018-10-05T02:40:23.949Z,59.44
2018-10-05T02:41:23.997Z,59.72
2018-10-05T02:42:23.994Z,59.72
2018-10-05T02:43:23.759Z,59.82
2018-10-05T02:44:24.051Z,59.63
2018-10-05T02:45:23.806Z,59.72
2018-10-05T02:46:24.087Z,59.63
2018-10-05T02:47:24.125Z,59.72
2018-10-05T02:48:23.893Z,59.82
2018-10-05T02:49:24.172Z,59.82
2018-10-05T02:50:23.937Z,59.63
2018-10-05T02:51:24.215Z,59.72
2018-10-05T02:52:23.988Z,59.82
2018-10-05T02:53:24.006Z,60.24
2018-10-05T02:54:24.300Z,59.72
2018-10-05T02:55:24.067Z,60.3
2018-10-05T02:56:24.364Z,60.11
2018-10-05T02:57:24.108Z,59.72
2018-10-05T02:58:24.400Z,60.11
2018-10-05T02:59:24.160Z,59.72
2018-10-05T03:00:24.458Z,59.82
2018-10-05T03:01:24.471Z,59.92
2018-10-05T03:02:24.246Z,59.82
2018-10-05T03:03:24.270Z,59.63
2018-10-05T03:04:24.295Z,60.39
2018-10-05T03:05:24.575Z,60.3
2018-10-05T03:06:24.613Z,59.63
2018-10-05T03:07:24.626Z,60.14
2018-10-05T03:08:24.653Z,60.11
2018-10-05T03:09:24.433Z,59.63
2018-10-05T03:10:24.444Z,59.63
2018-10-05T03:11:24.740Z,59.63
2018-10-05T03:12:24.758Z,59.92
2018-10-05T03:13:24.532Z,59.82
2018-10-05T03:14:24.801Z,59.63
2018-10-05T03:15:24.572Z,59.72
2018-10-05T03:16:24.870Z,59.63
2018-10-05T03:17:24.637Z,60.11
2018-10-05T03:18:24.917Z,59.92
2018-10-05T03:19:24.682Z,60.3
2018-10-05T03:20:24.965Z,60.39
2018-10-05T03:21:24.736Z,60.39
2018-10-05T03:22:24.761Z,60.21
2018-10-05T03:24:24.812Z,60.3
2018-10-05T03:25:25.097Z,60.39
2018-10-05T03:26:25.126Z,60.11
2018-10-05T03:27:25.150Z,60.39
2018-10-05T03:28:25.165Z,60.21
2018-10-05T03:29:25.205Z,60.11
2018-10-05T03:30:24.970Z,59.63
2018-10-05T03:31:24.987Z,60.3
2018-10-05T03:32:25.289Z,60.21
2018-10-05T03:33:25.300Z,60.3
2018-10-05T03:34:25.317Z,59.63
2018-10-05T03:35:25.342Z,60.39
2018-10-05T03:36:25.112Z,60.21
2018-10-05T03:37:25.395Z,60.21
2018-10-05T03:38:25.419Z,60.39
2018-10-05T03:39:25.514Z,60.21
2018-10-05T03:40:25.474Z,60.24
2018-10-05T03:41:25.517Z,60.01
2018-10-05T03:42:25.276Z,59.92
2018-10-05T03:43:25.293Z,60.11
2018-10-05T03:44:25.316Z,60.01
2018-10-05T03:45:25.602Z,59.92
2018-10-05T03:46:25.692Z,60.01
2018-10-05T03:47:25.654Z,59.92
2018-10-05T03:48:25.684Z,60.39
2018-10-05T03:49:25.703Z,60.21
2018-10-05T03:50:25.730Z,60.01
2018-10-05T03:51:25.494Z,60.21
2018-10-05T03:52:25.780Z,60.11
2018-10-05T03:53:25.813Z,60.11
2018-10-05T03:54:25.827Z,60.21
2018-10-05T03:55:25.853Z,60.01
2018-10-05T03:56:25.631Z,60.21
2018-10-05T03:57:25.908Z,60.21
2018-10-05T03:58:25.936Z,59.82
2018-10-05T03:59:25.706Z,60.3
2018-10-05T04:00:25.735Z,60.01
2018-10-05T04:01:25.754Z,60.11
2018-10-05T04:02:25.778Z,60.11
2018-10-05T04:03:26.066Z,60.59
2018-10-05T04:04:25.833Z,60.59
2018-10-05T04:05:26.110Z,59.92
2018-10-05T04:06:26.152Z,60.11
2018-10-05T04:07:25.912Z,60.11
2018-10-05T04:08:26.203Z,60.21
2018-10-05T04:09:26.227Z,59.82
2018-10-05T04:10:26.240Z,60.3
2018-10-05T04:11:26.264Z,59.82
2018-10-05T04:12:26.300Z,60.01
2018-10-05T04:13:26.059Z,60.11
2018-10-05T04:14:26.080Z,60.39
2018-10-05T04:15:26.364Z,60.01
2018-10-05T04:16:26.137Z,60.3
2018-10-05T04:17:26.437Z,59.82
2018-10-05T04:18:26.442Z,60.11
2018-10-05T04:19:26.476Z,60.11
2018-10-05T04:20:26.499Z,60.3
2018-10-05T04:21:26.521Z,59.92
2018-10-05T04:22:26.292Z,60.11
2018-10-05T04:23:26.315Z,60.39
2018-10-05T04:24:26.598Z,59.92
2018-10-05T04:25:26.629Z,60.39
2018-10-05T04:26:26.644Z,60.39
2018-10-05T04:27:26.850Z,60.39
2018-10-05T04:28:26.448Z,60.01
2018-10-05T04:29:26.723Z,60.3
2018-10-05T04:30:26.493Z,60.21
2018-10-05T04:31:26.515Z,60.3
2018-10-05T04:32:26.543Z,60.39
2018-10-05T04:33:26.572Z,60.11
2018-10-05T04:34:26.597Z,60.39
2018-10-05T04:35:26.979Z,59.92
2018-10-05T04:36:26.905Z,60.39
2018-10-05T04:37:26.672Z,60.21
2018-10-05T04:38:26.701Z,60.21
2018-10-05T04:39:26.975Z,60.01
2018-10-05T04:40:26.745Z,60.39
2018-10-05T04:41:27.226Z,60.3
2018-10-05T04:42:27.072Z,60.3
2018-10-05T04:43:27.095Z,60.3
2018-10-05T04:44:26.847Z,60.39
2018-10-05T04:45:26.876Z,60.33
2018-10-05T04:46:27.161Z,60.3
2018-10-05T04:47:27.194Z,60.3
2018-10-05T04:48:27.209Z,60.39
2018-10-05T04:50:27.269Z,60.11
2018-10-05T04:51:27.283Z,60.3
2018-10-05T04:52:27.057Z,60.39
2018-10-05T04:53:27.352Z,60.39
2018-10-05T04:54:27.107Z,60.39
2018-10-05T04:55:27.402Z,60.39
2018-10-05T04:56:27.533Z,60.21
2018-10-05T04:57:27.185Z,60.39
2018-10-05T04:58:27.478Z,60.3
2018-10-05T04:59:27.492Z,60.21
2018-10-05T05:00:27.529Z,60.3
2018-10-05T05:01:27.534Z,60.3
2018-10-05T05:02:27.316Z,60.39
2018-10-05T05:03:27.442Z,60.11
2018-10-05T05:04:27.621Z,60.01
2018-10-05T05:05:27.385Z,60.3
2018-10-05T05:06:27.673Z,60.39
2018-10-05T05:07:27.707Z,60.21
2018-10-05T05:08:27.458Z,60.39
2018-10-05T05:09:27.490Z,60.39
2018-10-05T05:10:27.513Z,60.01
2018-10-05T05:11:27.789Z,60.11
2018-10-05T05:12:27.568Z,60.39
2018-10-05T05:13:27.591Z,60.39
2018-10-05T05:14:28.024Z,60.3
2018-10-05T05:15:27.908Z,59.92
2018-10-05T05:16:27.925Z,60.11
2018-10-05T05:17:27.699Z,60.3
2018-10-05T05:18:27.975Z,60.3
2018-10-05T05:19:27.787Z,60.39
2018-10-05T05:20:28.036Z,60.49
2018-10-05T05:21:27.795Z,60.39
2018-10-05T05:22:28.074Z,60.21
2018-10-05T05:23:27.843Z,60.11
2018-10-05T05:24:27.875Z,60.21
2018-10-05T05:25:28.153Z,60.01
2018-10-05T05:26:28.182Z,60.3
2018-10-05T05:27:28.214Z,60.21
2018-10-05T05:28:28.035Z,60.21
2018-10-05T05:29:28.248Z,60.21
2018-10-05T05:30:28.028Z,60.01
2018-10-05T05:31:28.307Z,60.39
2018-10-05T05:32:28.086Z,60.3
2018-10-05T05:33:28.428Z,60.39
2018-10-05T05:34:28.126Z,60.39
2018-10-05T05:35:28.425Z,60.3
2018-10-05T05:36:28.438Z,60.3
2018-10-05T05:37:28.461Z,60.21
2018-10-05T05:38:28.495Z,60.01
2018-10-05T05:39:28.518Z,60.39
2018-10-05T05:40:28.578Z,60.3
2018-10-05T05:41:28.572Z,60.01
2018-10-05T05:42:28.592Z,60.21
2018-10-05T05:43:28.625Z,60.39
2018-10-05T05:44:28.639Z,60.21
2018-10-05T05:45:28.662Z,60.59
2018-10-05T05:46:28.438Z,60.01
2018-10-05T05:47:28.719Z,60.3
2018-10-05T05:48:28.756Z,60.11
2018-10-05T05:49:28.782Z,60.3
2018-10-05T05:50:28.542Z,60.11
2018-10-05T05:51:28.834Z,60.11
2018-10-05T05:52:28.866Z,60.21
2018-10-05T05:53:28.612Z,60.21
2018-10-05T05:54:29.201Z,60.21
2018-10-05T05:55:28.674Z,60.3
2018-10-05T05:56:28.693Z,60.39
2018-10-05T05:57:28.976Z,60.39
2018-10-05T05:58:29.009Z,60.11
2018-10-05T05:59:28.770Z,60.69
2018-10-05T06:00:29.046Z,60.88
2018-10-05T06:01:29.090Z,60.11
2018-10-05T06:02:29.101Z,60.11
2018-10-05T06:03:28.869Z,60.3
2018-10-05T06:04:29.168Z,60.21
2018-10-05T06:05:29.181Z,60.49
2018-10-05T06:06:28.947Z,60.21
2018-10-05T06:07:29.228Z,60.3
2018-10-05T06:08:29.007Z,59.92
2018-10-05T06:09:29.287Z,60.21
2018-10-05T06:10:29.055Z,60.01
2018-10-05T06:11:29.346Z,60.49
2018-10-05T06:12:29.370Z,60.49
2018-10-05T06:13:29.380Z,60.21
2018-10-05T06:14:29.425Z,60.49
2018-10-05T06:15:29.199Z,60.3
2018-10-05T06:16:29.683Z,60.69
2018-10-05T06:17:29.493Z,60.49
2018-10-05T06:18:29.514Z,60.01
2018-10-05T06:19:29.537Z,60.21
2018-10-05T06:20:29.562Z,60.69
2018-10-05T06:21:29.466Z,60.78
2018-10-05T06:22:29.554Z,59.72
2018-10-05T06:23:29.384Z,58.76
2018-10-05T06:24:29.669Z,57.32
2018-10-05T06:25:29.708Z,56.16
2018-10-05T06:26:29.459Z,56.36
2018-10-05T06:27:29.586Z,56.36
2018-10-05T06:28:29.516Z,56.26
2018-10-05T06:29:29.797Z,56.07
2018-10-05T06:30:29.620Z,55.68
2018-10-05T06:31:29.604Z,55.46
2018-10-05T06:32:29.623Z,55.66
2018-10-05T06:33:29.902Z,55.66
2018-10-05T06:34:29.937Z,55.56
2018-10-05T06:35:29.949Z,55.66
2018-10-05T06:36:29.712Z,55.85
2018-10-05T06:37:29.735Z,55.66
2018-10-05T06:38:29.776Z,55.46
2018-10-05T06:39:30.055Z,55.85
2018-10-05T06:40:29.827Z,55.85
2018-10-05T06:41:29.853Z,55.85
2018-10-05T06:42:30.248Z,55.85
2018-10-05T06:43:30.163Z,55.76
2018-10-05T06:44:30.207Z,55.46
2018-10-05T06:45:30.220Z,55.56
2018-10-05T06:46:30.228Z,55.85
2018-10-05T06:47:30.258Z,55.94
2018-10-05T06:48:30.286Z,55.66
2018-10-05T06:49:30.050Z,55.94
2018-10-05T06:50:30.338Z,55.46
2018-10-05T06:51:30.373Z,55.94
2018-10-05T06:52:30.389Z,55.94
2018-10-05T06:53:30.414Z,55.66
2018-10-05T06:54:30.433Z,55.56
2018-10-05T06:55:30.459Z,55.56
2018-10-05T06:56:30.225Z,55.66
2018-10-05T06:57:30.509Z,55.46
2018-10-05T06:58:30.597Z,55.66
2018-10-05T06:59:30.306Z,55.85
2018-10-05T07:00:30.607Z,55.94
2018-10-05T07:01:30.431Z,55.66
2018-10-05T07:02:30.642Z,55.85
2018-10-05T07:03:30.410Z,55.66
2018-10-05T07:04:30.689Z,55.37
2018-10-05T07:05:30.719Z,55.66
2018-10-05T07:06:30.490Z,55.66
2018-10-05T07:07:30.591Z,55.37
2018-10-05T07:08:30.799Z,55.46
2018-10-05T07:09:30.834Z,55.46
2018-10-05T07:10:30.843Z,55.37
2018-10-05T07:11:30.706Z,55.37
2018-10-05T07:12:30.647Z,55.94
2018-10-05T07:13:30.669Z,56.04
2018-10-05T07:14:30.959Z,56.43
2018-10-05T07:15:30.709Z,56.23
2018-10-05T07:16:30.995Z,56.43
2018-10-05T07:17:30.774Z,56.62
2018-10-05T07:18:30.788Z,56.23
2018-10-05T07:19:31.068Z,56.33
2018-10-05T07:20:31.102Z,56.52
2018-10-05T07:21:31.396Z,55.94
2018-10-05T07:22:31.340Z,55.85
2018-10-05T07:23:31.185Z,55.94
2018-10-05T07:24:31.198Z,55.56
2018-10-05T07:25:31.227Z,56.04
2018-10-05T07:26:30.993Z,55.94
2018-10-05T07:27:31.281Z,55.94
2018-10-05T07:28:31.725Z,55.37
2018-10-05T07:29:31.336Z,56.04
2018-10-05T07:30:31.356Z,55.66
2018-10-05T07:31:31.124Z,56.04
2018-10-05T07:32:31.150Z,56.14
2018-10-05T07:33:31.182Z,56.23
2018-10-05T07:34:31.231Z,56.14
2018-10-05T07:35:31.482Z,55.94
2018-10-05T07:36:31.547Z,56.04
2018-10-05T07:37:31.316Z,55.94
2018-10-05T07:38:31.567Z,55.37
2018-10-05T07:39:31.597Z,55.98
2018-10-05T07:40:31.356Z,56.26
2018-10-05T07:41:31.649Z,56.45
2018-10-05T07:42:31.667Z,56.45
2018-10-05T07:43:31.437Z,56.36
2018-10-05T07:44:31.466Z,56.33
2018-10-05T07:45:31.739Z,56.52
